Alyeska Resort
Hourly Weather - Base Weather Site
ALY_BASE_HR 10/31/2014
CLICK TO VIEW GRAPH!!

        DATE  TIME   Air  BATT   H2o   H2o   Rel
                    Temp  Volt  Inch Since  Hum%
                      F   AVG   1HR  0600   AVG

  10/31/2014 14:00    31 14.05  0.02  0.02    93
  10/31/2014 13:00    28 14.09  0.00  0.00    92
  10/31/2014 12:00    26 14.11  0.00  0.00    91
  10/31/2014 11:00    26 14.13  0.00  0.00    90
  10/31/2014 10:00    25 14.14  0.00  0.00    90
  10/31/2014 09:00    25 14.15  0.00  0.00    88
  10/31/2014 08:00    25 14.16  0.00  0.00    86
  10/31/2014 07:00    24 14.18  0.00  0.00    85
  10/31/2014 06:00    23 14.20  0.00  0.00    87
  10/31/2014 05:00    21 14.24  0.00  0.00    89
  10/31/2014 04:00    19 14.26  0.00  0.00    88
  10/31/2014 03:00    19 14.26  0.00  0.00    87
  10/31/2014 02:00    19 14.26  0.00  0.00    86
  10/31/2014 01:00    19 14.25  0.00  0.00    90
  10/30/2014 24:00    20 14.23  0.00  0.00    86
  10/30/2014 23:00    21 14.21  0.00  0.00    83
  10/30/2014 22:00    22 14.18  0.00  0.00    82
  10/30/2014 21:00    24 14.15  0.00  0.00    76
  10/30/2014 20:00    25 14.12  0.00  0.00    72
  10/30/2014 19:00    27 14.08  0.00  0.00    70
  10/30/2014 18:00    30 14.04  0.00  0.00    64
  10/30/2014 17:00    32 14.02  0.00  0.00    61
  10/30/2014 16:00    32 14.03  0.00  0.00    60
  10/30/2014 15:00    31 14.07  0.00  0.00    68


CLICK TO VIEW GRAPH!!